Time;durP1;ratioP1;P1;durP2;ratioP2;P2;SDS_P1;SDS_P2;PMS_P1;PMS_P2;Temp;Humidity;BMP_temperature;BMP_pressure;BME280_temperature;BME280_humidity;BME280_pressure;Samples;Min_cycle;Max_cycle;Signal;HPM_P1;HPM_P2
2022/05/10 00:00:49;;;;;;;9.82;3.63;;;14.00;98.30;;;;;;5053335;28;20541;-92
2022/05/10 00:03:15;;;;;;;10.45;4.53;;;13.90;98.50;;;;;;5037610;28;20393;-92
2022/05/10 00:05:42;;;;;;;9.60;3.40;;;14.00;99.90;;;;;;5036306;28;20047;-92
2022/05/10 00:08:11;;;;;;;9.93;4.32;;;13.90;99.30;;;;;;5053312;28;20051;-92
2022/05/10 00:10:37;;;;;;;11.25;4.93;;;14.00;99.90;;;;;;5052215;28;20169;-92
2022/05/10 00:13:04;;;;;;;12.63;4.80;;;14.10;99.90;;;;;;5052763;28;20437;-91
2022/05/10 00:15:29;;;;;;;13.00;5.20;;;14.00;99.90;;;;;;5070109;28;20379;-92
2022/05/10 00:17:55;;;;;;;11.20;4.95;;;14.00;99.90;;;;;;5070615;28;20127;-91
2022/05/10 00:20:23;;;;;;;11.85;5.40;;;14.00;99.90;;;;;;5053573;28;20119;-91
2022/05/10 00:22:49;;;;;;;13.75;4.65;;;13.90;99.90;;;;;;5053118;28;20056;-92
2022/05/10 00:25:20;;;;;;;11.63;5.13;;;13.90;99.90;;;;;;5052924;28;20032;-92
2022/05/10 00:27:46;;;;;;;10.68;5.03;;;13.90;99.90;;;;;;5037375;28;20040;-92
2022/05/10 00:30:12;;;;;;;12.80;4.35;;;13.90;99.90;;;;;;5052872;28;20044;-92
2022/05/10 00:32:39;;;;;;;11.35;5.07;;;13.80;99.90;;;;;;5036742;28;20044;-92
2022/05/10 00:35:10;;;;;;;12.63;5.50;;;13.80;99.90;;;;;;5052715;28;20043;-91
2022/05/10 00:37:36;;;;;;;10.25;4.60;;;13.80;99.90;;;;;;5036543;28;20044;-92
2022/05/10 00:40:02;;;;;;;10.38;4.18;;;13.70;99.90;;;;;;5035953;28;20039;-92
2022/05/10 00:42:34;;;;;;;11.07;4.72;;;13.70;99.90;;;;;;5036804;28;20047;-92
2022/05/10 00:45:15;;;;;;;9.00;4.00;;;13.70;99.90;;;;;;5036445;28;20068;-92
2022/05/10 00:47:51;;;;;;;11.65;5.70;;;13.70;99.90;;;;;;5052914;28;20083;-92
2022/05/10 00:50:26;;;;;;;13.45;6.03;;;13.80;99.90;;;;;;5053669;28;20650;-92
2022/05/10 00:53:03;;;;;;;10.30;4.93;;;13.90;99.90;;;;;;5036299;28;20131;-91
2022/05/10 00:55:38;;;;;;;11.57;5.95;;;13.90;99.90;;;;;;5053027;28;20123;-92
2022/05/10 00:58:21;;;;;;;12.88;6.35;;;13.90;99.90;;;;;;5053253;28;20517;-92
2022/05/10 01:00:47;;;;;;;11.00;5.78;;;14.00;99.90;;;;;;5053040;28;20037;-92
2022/05/10 01:03:27;;;;;;;14.25;6.95;;;14.00;99.90;;;;;;5036571;28;20107;-92
2022/05/10 01:06:04;;;;;;;12.05;6.00;;;14.10;99.90;;;;;;5045711;28;20390;-92
2022/05/10 01:08:44;;;;;;;16.27;7.57;;;14.10;99.90;;;;;;5053134;28;20041;-92
2022/05/10 01:11:25;;;;;;;11.60;6.03;;;14.20;99.90;;;;;;5052775;28;20048;-92
2022/05/10 01:14:14;;;;;;;12.07;6.13;;;14.10;99.90;;;;;;5052670;28;20119;-92
2022/05/10 01:16:40;;;;;;;13.13;7.60;;;14.10;99.90;;;;;;5052548;28;20036;-92
2022/05/10 01:19:05;;;;;;;14.80;8.05;;;14.10;99.90;;;;;;5052592;28;20051;-92
2022/05/10 01:22:17;;;;;;;13.60;8.20;;;14.20;99.90;;;;;;5074951;28;20032;-92
2022/05/10 01:25:33;;;;;;;15.63;8.10;;;14.30;99.50;;;;;;5071050;28;20036;-92
2022/05/10 01:28:26;;;;;;;14.50;8.27;;;14.30;99.80;;;;;;4940978;28;20492;-92
2022/05/10 01:30:52;;;;;;;16.25;6.93;;;14.30;99.90;;;;;;4957323;28;20058;-92
2022/05/10 01:33:30;;;;;;;11.80;6.13;;;14.20;99.60;;;;;;4957115;28;20059;-92
2022/05/10 01:36:38;;;;;;;13.68;7.53;;;14.20;99.70;;;;;;4956615;28;20049;-92
2022/05/10 01:39:17;;;;;;;13.32;7.82;;;14.20;99.80;;;;;;4957437;28;20082;-92
2022/05/10 01:42:04;;;;;;;15.05;7.60;;;14.20;99.90;;;;;;4941089;28;20050;-92
2022/05/10 01:44:37;;;;;;;12.90;5.95;;;14.10;99.90;;;;;;4941026;28;20057;-92
2022/05/10 01:47:10;;;;;;;13.85;6.57;;;14.00;99.90;;;;;;4941336;28;20043;-91
2022/05/10 01:49:47;;;;;;;15.02;7.75;;;13.90;99.90;;;;;;4972755;28;20125;-92
2022/05/10 01:52:34;;;;;;;14.77;6.38;;;14.00;99.90;;;;;;4972905;28;20051;-92
2022/05/10 01:55:04;;;;;;;13.48;7.75;;;13.90;99.90;;;;;;4940362;28;20083;-91
2022/05/10 01:57:33;;;;;;;13.80;8.45;;;13.90;99.90;;;;;;4956555;28;20513;-92
2022/05/10 02:00:15;;;;;;;14.27;6.60;;;13.90;99.90;;;;;;4972264;28;20043;-91
2022/05/10 02:03:10;;;;;;;14.37;5.50;;;14.00;99.90;;;;;;4952933;28;20035;-91
2022/05/10 02:06:22;;;;;;;15.02;7.07;;;14.00;99.90;;;;;;5038811;28;20127;-92
2022/05/10 02:09:18;;;;;;;16.02;6.60;;;14.00;99.90;;;;;;5025465;28;20131;-92
2022/05/10 02:11:51;;;;;;;13.57;7.18;;;14.00;99.90;;;;;;5055266;28;20028;-92
2022/05/10 02:14:21;;;;;;;;;;;14.00;99.90;;;;;;5056138;28;20454;-92
2022/05/10 02:16:53;;;;;;;17.95;10.82;;;14.00;99.90;;;;;;5055006;28;20002;-92
2022/05/10 02:19:28;;;;;;;14.27;8.55;;;14.00;99.90;;;;;;5055415;28;20090;-91
2022/05/10 02:21:58;;;;;;;18.63;10.75;;;14.10;99.90;;;;;;5054806;28;20043;-93
2022/05/10 02:24:58;;;;;;;16.05;10.93;;;14.20;99.90;;;;;;5055209;28;20097;-93
2022/05/10 02:27:37;;;;;;;35.45;10.50;;;14.20;99.90;;;;;;4955766;28;20093;-92
2022/05/10 02:30:05;;;;;;;14.95;12.23;;;14.20;99.90;;;;;;4947460;28;20733;-92
2022/05/10 02:35:22;;;;;;;17.33;11.90;;;14.30;99.90;;;;;;4954736;28;20047;-92
2022/05/10 02:37:47;;;;;;;17.55;10.65;;;14.30;99.90;;;;;;4955663;28;20062;-92
2022/05/10 02:40:14;;;;;;;17.63;10.63;;;14.30;99.90;;;;;;4955226;28;20039;-92
2022/05/10 02:42:44;;;;;;;19.25;13.63;;;14.30;99.90;;;;;;4956150;28;20523;-91
2022/05/10 02:45:12;;;;;;;20.13;14.27;;;14.30;99.90;;;;;;4955642;28;20550;-92
2022/05/10 02:47:40;;;;;;;16.45;11.57;;;14.40;99.90;;;;;;4955983;28;20046;-92
2022/05/10 02:50:21;;;;;;;17.10;11.07;;;14.40;99.90;;;;;;4955274;28;20050;-92
2022/05/10 02:52:47;;;;;;;19.23;12.27;;;14.40;99.90;;;;;;4956086;28;20050;-92
2022/05/10 02:55:21;;;;;;;18.23;15.10;;;14.40;99.90;;;;;;4956187;28;20046;-92
2022/05/10 02:57:50;;;;;;;17.15;14.20;;;14.50;99.90;;;;;;4955247;28;20047;-92
2022/05/10 03:00:17;;;;;;;19.67;14.45;;;14.50;99.90;;;;;;4954370;28;20055;-92
2022/05/10 03:02:46;;;;;;;18.85;12.65;;;14.60;99.90;;;;;;5009831;28;20040;-90
2022/05/10 03:05:13;;;;;;;21.42;14.80;;;14.60;99.90;;;;;;5070378;28;20028;-90
2022/05/10 03:07:39;;;;;;;19.17;15.02;;;14.60;99.90;;;;;;5055181;28;20086;-91
2022/05/10 03:10:06;;;;;;;20.00;16.17;;;14.70;99.90;;;;;;5055734;28;20062;-92
2022/05/10 03:12:32;;;;;;;18.48;15.52;;;14.70;99.90;;;;;;5058201;28;20032;-92
2022/05/10 03:14:58;;;;;;;21.25;12.80;;;14.70;99.90;;;;;;5070032;28;20046;-92
2022/05/10 03:17:24;;;;;;;21.52;16.90;;;14.70;99.90;;;;;;5072844;28;20017;-91
2022/05/10 03:19:49;;;;;;;20.90;15.85;;;14.70;99.90;;;;;;5073245;28;20021;-92
2022/05/10 03:22:15;;;;;;;20.40;15.65;;;14.70;99.90;;;;;;5059861;28;20489;-92
2022/05/10 03:24:40;;;;;;;18.70;13.07;;;14.80;99.90;;;;;;5038017;28;20044;-92
2022/05/10 03:27:11;;;;;;;22.10;17.20;;;14.80;99.90;;;;;;5038226;28;20052;-92
2022/05/10 03:29:39;;;;;;;19.73;17.45;;;14.80;99.90;;;;;;5038257;28;20052;-92
2022/05/10 03:32:05;;;;;;;21.55;17.90;;;14.80;99.90;;;;;;5055216;28;20044;-92
2022/05/10 03:37:15;;;;;;;22.02;19.08;;;14.80;99.90;;;;;;5050504;28;20041;-92
2022/05/10 03:39:41;;;;;;;24.75;18.40;;;14.80;99.90;;;;;;5077698;28;20119;-92
2022/05/10 03:42:07;;;;;;;23.23;18.75;;;14.80;99.90;;;;;;5053625;28;20043;-92
2022/05/10 03:44:34;;;;;;;23.67;15.70;;;14.80;99.90;;;;;;5037824;28;20033;-92
2022/05/10 03:47:00;;;;;;;22.17;15.35;;;14.80;99.90;;;;;;5038092;28;20036;-92
2022/05/10 03:49:26;;;;;;;21.40;19.20;;;14.70;99.90;;;;;;5054393;28;20490;-91
2022/05/10 03:51:54;;;;;;;21.27;15.48;;;14.80;99.90;;;;;;5053629;28;20490;-91
2022/05/10 03:54:20;;;;;;;23.80;19.27;;;14.80;99.90;;;;;;5052744;28;20110;-91
2022/05/10 03:56:46;;;;;;;23.00;19.70;;;14.80;99.90;;;;;;5053400;28;20082;-92
2022/05/10 03:59:12;;;;;;;22.52;20.13;;;14.80;99.90;;;;;;5053775;28;20490;-92
2022/05/10 04:01:37;;;;;;;23.08;19.50;;;14.80;99.90;;;;;;5053372;28;20052;-91
2022/05/10 04:04:03;;;;;;;24.83;20.38;;;14.80;99.90;;;;;;5054303;28;20066;-92
2022/05/10 04:06:29;;;;;;;24.02;18.73;;;14.90;99.90;;;;;;5036868;28;20074;-91
2022/05/10 04:08:55;;;;;;;21.38;15.27;;;14.90;99.90;;;;;;5054292;28;20063;-91
2022/05/10 04:11:20;;;;;;;22.40;18.88;;;14.90;99.90;;;;;;5053590;28;20553;-92
2022/05/10 04:13:46;;;;;;;19.85;15.45;;;14.90;99.90;;;;;;5053377;28;20044;-91
2022/05/10 04:16:12;;;;;;;20.95;18.45;;;14.90;99.90;;;;;;5053812;28;20040;-92
2022/05/10 04:18:38;;;;;;;22.23;19.15;;;14.90;99.90;;;;;;5052891;28;20383;-92
2022/05/10 04:21:04;;;;;;;20.83;18.50;;;14.90;99.90;;;;;;5053947;28;20391;-92
2022/05/10 04:23:29;;;;;;;21.10;18.70;;;14.90;99.90;;;;;;5053265;28;20029;-92
2022/05/10 04:26:05;;;;;;;20.70;15.23;;;15.00;99.90;;;;;;5053384;28;20128;-91
2022/05/10 04:28:32;;;;;;;22.75;19.50;;;15.00;99.90;;;;;;5053365;28;20556;-92
2022/05/10 04:30:58;;;;;;;21.20;15.98;;;15.00;99.90;;;;;;5052870;28;20410;-92
2022/05/10 04:33:23;;;;;;;21.25;18.45;;;15.00;99.90;;;;;;5036613;28;20090;-92
2022/05/10 04:35:49;;;;;;;23.63;15.20;;;15.00;99.90;;;;;;5052875;28;20044;-92
2022/05/10 04:38:14;;;;;;;22.90;16.98;;;15.00;99.90;;;;;;5053730;28;20120;-92
2022/05/10 04:43:24;;;;;;;21.17;17.67;;;15.00;99.90;;;;;;5053693;28;20049;-92
2022/05/10 04:45:49;;;;;;;22.95;18.38;;;15.10;99.90;;;;;;5053064;28;20497;-91
2022/05/10 04:48:15;;;;;;;23.10;17.75;;;15.10;99.90;;;;;;5071348;28;20074;-91
2022/05/10 04:50:40;;;;;;;22.50;17.83;;;15.20;99.90;;;;;;5069491;28;20048;-91
2022/05/10 04:53:06;;;;;;;22.13;17.85;;;15.20;99.90;;;;;;5052944;28;20123;-92
2022/05/10 04:55:32;;;;;;;21.85;15.05;;;15.20;99.90;;;;;;5057363;28;20123;-92
2022/05/10 04:57:57;;;;;;;21.45;15.65;;;15.20;99.90;;;;;;5061675;28;20379;-92
2022/05/10 05:00:24;;;;;;;23.88;18.95;;;15.20;99.90;;;;;;5057452;28;20124;-91
2022/05/10 05:02:49;;;;;;;22.23;15.23;;;15.20;99.90;;;;;;5048359;28;20082;-92
2022/05/10 05:05:15;;;;;;;18.65;15.77;;;15.20;99.90;;;;;;5050505;28;20041;-90
2022/05/10 05:07:41;;;;;;;22.63;19.00;;;15.20;99.90;;;;;;5040977;28;20090;-92
2022/05/10 05:10:09;;;;;;;21.27;17.95;;;15.30;99.90;;;;;;5056876;28;20040;-92
2022/05/10 05:12:35;;;;;;;21.80;17.15;;;15.30;99.90;;;;;;5057332;28;20040;-92
2022/05/10 05:15:05;;;;;;;20.77;18.00;;;15.40;99.90;;;;;;5056465;28;20036;-91
2022/05/10 05:17:30;;;;;;;19.60;17.33;;;15.40;99.90;;;;;;5056878;28;20560;-91
2022/05/10 05:19:56;;;;;;;19.92;16.80;;;15.50;99.90;;;;;;5040185;28;20043;-91
2022/05/10 05:22:21;;;;;;;23.20;17.77;;;15.50;99.90;;;;;;5057119;28;20044;-92
2022/05/10 05:24:47;;;;;;;20.90;16.80;;;15.60;99.90;;;;;;5056840;28;20078;-91
2022/05/10 05:27:13;;;;;;;21.02;15.00;;;15.60;99.90;;;;;;5065640;28;20036;-91
2022/05/10 05:29:39;;;;;;;28.55;15.60;;;15.60;99.90;;;;;;5056873;28;20658;-91
2022/05/10 05:32:08;;;;;;;22.50;17.48;;;15.60;99.90;;;;;;5064945;28;20502;-91
2022/05/10 05:34:35;;;;;;;20.10;17.15;;;15.60;99.90;;;;;;5056476;28;20040;-91
2022/05/10 05:39:45;;;;;;;21.15;17.83;;;15.70;99.90;;;;;;5056755;28;20045;-91
2022/05/10 05:42:11;;;;;;;21.13;16.73;;;15.70;99.90;;;;;;5056705;28;20219;-92
2022/05/10 05:44:36;;;;;;;21.52;17.50;;;15.80;99.90;;;;;;5056528;28;20145;-91
2022/05/10 05:47:02;;;;;;;22.98;14.55;;;15.80;99.90;;;;;;5056825;28;20040;-91
2022/05/10 05:49:28;;;;;;;22.58;18.25;;;15.80;99.90;;;;;;5055845;28;20044;-92
2022/05/10 05:52:00;;;;;;;25.20;18.63;;;15.80;99.90;;;;;;5056628;28;20064;-92
2022/05/10 05:54:27;;;;;;;19.15;15.00;;;15.90;99.90;;;;;;5055825;28;20036;-92
2022/05/10 05:57:04;;;;;;;22.40;18.13;;;15.90;99.90;;;;;;5039113;28;20033;-91
2022/05/10 05:59:30;;;;;;;23.33;18.13;;;16.00;99.90;;;;;;5055561;28;20093;-92
2022/05/10 06:01:56;;;;;;;22.67;18.40;;;16.00;99.90;;;;;;5051320;28;20127;-92
2022/05/10 06:04:25;;;;;;;23.85;16.70;;;16.00;99.90;;;;;;5061776;28;20449;-92
2022/05/10 06:06:51;;;;;;;21.33;19.02;;;16.10;99.90;;;;;;5028195;28;20494;-91
2022/05/10 06:09:22;;;;;;;25.00;19.38;;;16.10;99.90;;;;;;5028277;28;20039;-92
2022/05/10 06:11:49;;;;;;;20.83;18.60;;;16.20;99.90;;;;;;5035134;28;20076;-91
2022/05/10 06:14:14;;;;;;;23.08;19.63;;;16.20;99.90;;;;;;5054965;28;20063;-91
2022/05/10 06:16:41;;;;;;;24.70;18.42;;;16.30;99.90;;;;;;5055258;28;20498;-92
2022/05/10 06:19:08;;;;;;;21.52;19.13;;;16.30;99.90;;;;;;5055046;28;20028;-91
2022/05/10 06:21:34;;;;;;;23.63;17.83;;;16.30;99.90;;;;;;5038378;28;20132;-92
2022/05/10 06:24:00;;;;;;;22.63;18.23;;;16.40;99.90;;;;;;5038324;28;20646;-91
2022/05/10 06:26:26;;;;;;;22.00;19.65;;;16.40;99.90;;;;;;5055159;28;20036;-91
2022/05/10 06:28:51;;;;;;;25.08;20.15;;;16.40;99.90;;;;;;5055177;28;20045;-92
2022/05/10 06:31:17;;;;;;;26.70;18.40;;;16.50;99.90;;;;;;5054962;28;20040;-92
2022/05/10 06:33:42;;;;;;;23.17;20.88;;;16.60;99.90;;;;;;5038628;28;20036;-92
2022/05/10 06:36:08;;;;;;;23.02;20.38;;;16.60;99.90;;;;;;5073240;28;20048;-92
2022/05/10 06:38:34;;;;;;;22.95;20.55;;;16.70;99.90;;;;;;5054903;28;20040;-92
2022/05/10 06:41:01;;;;;;;22.50;20.08;;;16.80;99.90;;;;;;5054956;28;20041;-93
2022/05/10 06:43:35;;;;;;;25.25;21.45;;;16.90;99.90;;;;;;5055216;28;20048;-92
2022/05/10 06:46:10;;;;;;;24.52;19.33;;;16.90;99.90;;;;;;5038887;28;20043;-92
2022/05/10 06:48:35;;;;;;;25.83;20.75;;;17.00;99.90;;;;;;5055309;28;20103;-92
2022/05/10 06:51:05;;;;;;;23.30;20.58;;;17.10;99.90;;;;;;5038223;28;20508;-92
2022/05/10 06:53:31;;;;;;;23.30;19.38;;;17.20;99.90;;;;;;5046012;28;20044;-91
2022/05/10 06:55:56;;;;;;;23.75;19.35;;;17.30;99.90;;;;;;5038008;28;20060;-91
2022/05/10 06:58:22;;;;;;;21.20;17.83;;;17.40;99.90;;;;;;5054934;28;20082;-92
2022/05/10 07:00:47;;;;;;;23.00;19.73;;;17.40;99.90;;;;;;5036647;28;20125;-91
2022/05/10 07:03:16;;;;;;;23.13;18.75;;;17.50;99.90;;;;;;5055298;28;20123;-90
2022/05/10 07:05:44;;;;;;;21.30;18.75;;;17.50;99.90;;;;;;5054390;28;20043;-91
2022/05/10 07:08:10;;;;;;;22.55;19.52;;;17.60;99.90;;;;;;5037992;28;20048;-91
2022/05/10 07:10:36;;;;;;;22.30;19.38;;;17.70;99.90;;;;;;5054421;28;20063;-90
2022/05/10 07:13:02;;;;;;;21.35;19.10;;;17.70;99.90;;;;;;5054886;28;20489;-90
2022/05/10 07:15:27;;;;;;;20.45;18.23;;;17.80;99.90;;;;;;5053856;28;20557;-91
2022/05/10 07:17:53;;;;;;;21.65;16.83;;;17.80;99.90;;;;;;5053225;28;20421;-91
2022/05/10 07:20:20;;;;;;;20.98;17.27;;;17.90;99.80;;;;;;5057238;28;20036;-91
2022/05/10 07:22:46;;;;;;;21.55;17.35;;;18.00;99.60;;;;;;5054208;28;20036;-91
2022/05/10 07:25:17;;;;;;;22.23;16.52;;;18.10;99.40;;;;;;5069516;28;20037;-90
2022/05/10 07:27:42;;;;;;;23.92;17.27;;;18.30;98.80;;;;;;5035696;28;20044;-91
2022/05/10 07:30:09;;;;;;;21.58;16.77;;;18.40;98.00;;;;;;5036146;28;20459;-91
2022/05/10 07:32:35;;;;;;;21.48;16.20;;;18.60;98.50;;;;;;5037320;28;20387;-91
2022/05/10 07:35:03;;;;;;;19.27;16.10;;;18.70;97.70;;;;;;5053228;28;20123;-91
2022/05/10 07:37:29;;;;;;;24.48;16.23;;;18.80;97.70;;;;;;5043714;28;20041;-91
2022/05/10 07:39:55;;;;;;;19.65;15.73;;;18.90;96.90;;;;;;5043934;28;20082;-91
2022/05/10 07:42:20;;;;;;;19.75;14.68;;;19.10;95.80;;;;;;5026986;28;20044;-91
2022/05/10 07:44:46;;;;;;;19.77;14.70;;;19.20;94.60;;;;;;5060736;28;20429;-90
2022/05/10 07:47:11;;;;;;;20.67;14.23;;;19.30;94.60;;;;;;5026023;28;20056;-90
2022/05/10 07:49:37;;;;;;;18.95;14.00;;;19.50;94.00;;;;;;5041536;28;20041;-90
2022/05/10 07:52:04;;;;;;;21.60;14.07;;;19.60;92.70;;;;;;5047056;28;20028;-90
2022/05/10 07:54:29;;;;;;;23.20;13.38;;;19.80;91.60;;;;;;5068629;28;20475;-91
2022/05/10 07:56:55;;;;;;;18.70;13.60;;;19.90;92.40;;;;;;5056071;28;20501;-90
2022/05/10 07:59:21;;;;;;;18.65;13.45;;;20.00;91.10;;;;;;5054364;28;20040;-90
2022/05/10 08:01:46;;;;;;;18.50;12.57;;;20.10;91.50;;;;;;5048237;28;20627;-91
2022/05/10 08:04:12;;;;;;;17.00;12.55;;;20.20;90.00;;;;;;5052777;28;20036;-91
2022/05/10 08:06:37;;;;;;;19.45;12.38;;;20.20;91.50;;;;;;5036402;28;20170;-91
2022/05/10 08:09:03;;;;;;;18.45;12.18;;;20.30;88.20;;;;;;5036599;28;20072;-91
2022/05/10 08:11:28;;;;;;;18.30;12.15;;;20.40;85.70;;;;;;5053606;28;20047;-91
2022/05/10 08:13:54;;;;;;;18.33;12.60;;;20.50;85.10;;;;;;5051771;28;20048;-90
2022/05/10 08:16:20;;;;;;;16.05;12.10;;;20.60;84.10;;;;;;5069832;28;20037;-91
2022/05/10 08:18:45;;;;;;;19.85;13.50;;;20.70;87.30;;;;;;5056317;28;20044;-91
2022/05/10 08:21:11;;;;;;;18.73;12.65;;;20.80;85.60;;;;;;5034441;28;20067;-91
2022/05/10 08:23:38;;;;;;;18.17;11.52;;;20.90;84.10;;;;;;5052774;28;20394;-91
2022/05/10 08:26:05;;;;;;;16.90;12.15;;;21.00;83.40;;;;;;5035062;28;20519;-91
2022/05/10 08:28:32;;;;;;;16.73;11.80;;;21.10;85.50;;;;;;5036348;28;20044;-92
2022/05/10 08:30:58;;;;;;;16.13;12.00;;;21.10;84.20;;;;;;5051451;28;20462;-92
2022/05/10 08:33:31;;;;;;;16.15;10.40;;;21.10;81.70;;;;;;5051752;28;20131;-91
2022/05/10 08:35:57;;;;;;;;;;;21.20;79.20;;;;;;5056325;28;20093;-92
2022/05/10 08:38:24;;;;;;;14.48;10.02;;;21.20;81.70;;;;;;5034904;28;19924;-91
2022/05/10 08:41:20;;;;;;;14.30;9.82;;;21.20;80.70;;;;;;5052524;28;20060;-92
2022/05/10 08:43:56;;;;;;;16.52;10.07;;;21.20;81.50;;;;;;4978865;28;20106;-92
2022/05/10 08:46:31;;;;;;;13.40;8.95;;;21.30;76.30;;;;;;5028016;28;20090;-92
2022/05/10 08:49:02;;;;;;;17.33;9.07;;;21.30;75.90;;;;;;5053284;28;20044;-91
2022/05/10 08:51:29;;;;;;;16.80;8.52;;;21.30;76.80;;;;;;5034516;28;20054;-91
2022/05/10 08:53:55;;;;;;;16.50;9.80;;;21.30;81.60;;;;;;5052947;28;20119;-92
2022/05/10 08:56:32;;;;;;;12.10;8.95;;;21.40;77.60;;;;;;5035750;28;20528;-91
2022/05/10 08:59:12;;;;;;;14.32;9.77;;;21.50;79.20;;;;;;5051664;28;20046;-92
2022/05/10 09:02:03;;;;;;;17.02;10.18;;;21.60;76.40;;;;;;5052223;28;20044;-91
2022/05/10 09:04:48;;;;;;;16.02;9.68;;;21.60;74.60;;;;;;5035856;28;20041;-90
2022/05/10 09:07:36;;;;;;;13.60;10.35;;;21.60;77.00;;;;;;5052651;28;20052;-91
2022/05/10 09:10:07;;;;;;;16.77;10.10;;;21.70;75.40;;;;;;5035587;28;20044;-91
2022/05/10 09:12:43;;;;;;;14.57;10.53;;;21.80;77.50;;;;;;5036496;28;20122;-91
2022/05/10 09:15:10;;;;;;;16.13;9.40;;;21.90;75.60;;;;;;5052143;28;20778;-91
2022/05/10 09:17:36;;;;;;;15.45;8.80;;;22.00;75.90;;;;;;5052011;28;20090;-91
2022/05/10 09:20:07;;;;;;;19.90;9.93;;;22.10;75.30;;;;;;5052030;28;20028;-91
2022/05/10 09:22:51;;;;;;;13.85;8.82;;;22.20;75.70;;;;;;5052263;28;20036;-91
2022/05/10 09:25:28;;;;;;;14.52;8.82;;;22.40;74.10;;;;;;5052638;28;20042;-91
2022/05/10 09:27:54;;;;;;;13.70;8.60;;;22.60;74.20;;;;;;5035525;28;20040;-91
2022/05/10 09:30:34;;;;;;;13.82;8.35;;;22.60;72.20;;;;;;5052721;28;20097;-91
2022/05/10 09:36:03;;;;;;;;;;;22.80;70.60;;;;;;5052870;28;20398;-91
2022/05/10 09:38:29;;;;;;;13.43;8.65;;;22.60;69.70;;;;;;5051150;28;19925;-92
2022/05/10 09:40:55;;;;;;;11.10;8.38;;;22.60;71.30;;;;;;5071214;28;20051;-91
2022/05/10 09:43:27;;;;;;;14.55;8.13;;;22.60;71.80;;;;;;5056055;28;20029;-91
2022/05/10 09:46:21;;;;;;;15.98;8.38;;;22.50;71.40;;;;;;5055643;28;20036;-91
2022/05/10 09:48:47;;;;;;;13.13;8.77;;;22.50;71.70;;;;;;5054269;28;20107;-91
2022/05/10 09:51:40;;;;;;;13.15;8.65;;;22.50;72.90;;;;;;5039010;28;20052;-91
2022/05/10 09:54:11;;;;;;;;;;;22.50;73.20;;;;;;5056238;28;20036;-91
2022/05/10 09:56:40;;;;;;;13.25;7.93;;;22.40;73.70;;;;;;5055544;28;19922;-91
2022/05/10 09:59:12;;;;;;;12.15;7.78;;;22.40;74.40;;;;;;5055717;28;20037;-91
2022/05/10 10:01:44;;;;;;;11.88;8.45;;;22.40;73.40;;;;;;5054981;28;20036;-91
2022/05/10 10:04:38;;;;;;;11.70;8.52;;;22.40;73.60;;;;;;5039612;28;20071;-91
2022/05/10 10:07:30;;;;;;;12.13;8.70;;;22.50;75.80;;;;;;5039349;28;20039;-92
2022/05/10 10:10:14;;;;;;;16.65;8.80;;;22.50;75.20;;;;;;5032924;28;20056;-92
2022/05/10 10:12:42;;;;;;;14.50;7.95;;;22.60;74.60;;;;;;5057693;28;20068;-91
2022/05/10 10:15:24;;;;;;;12.40;7.63;;;22.60;74.00;;;;;;5037131;28;20448;-92
2022/05/10 10:18:03;;;;;;;12.10;8.27;;;22.60;74.80;;;;;;5056219;28;20114;-91
2022/05/10 10:20:39;;;;;;;11.57;8.13;;;22.70;76.20;;;;;;5047779;28;20040;-91
2022/05/10 10:23:40;;;;;;;14.30;7.55;;;22.80;74.60;;;;;;5069558;28;20063;-91
2022/05/10 10:26:37;;;;;;;14.60;8.02;;;22.90;74.80;;;;;;5072983;28;20043;-92
2022/05/10 10:29:30;;;;;;;11.57;7.30;;;23.00;70.20;;;;;;5073403;28;20049;-92
2022/05/10 10:32:11;;;;;;;12.25;7.13;;;23.00;70.70;;;;;;5008774;28;20452;-92
2022/05/10 10:34:50;;;;;;;12.80;6.88;;;23.10;70.90;;;;;;5049169;28;20048;-92
2022/05/10 10:37:38;;;;;;;12.20;7.45;;;23.10;69.00;;;;;;5036961;28;20044;-92
2022/05/10 10:40:11;;;;;;;11.65;7.80;;;23.10;68.50;;;;;;5048468;28;20521;-92
2022/05/10 10:42:54;;;;;;;11.00;6.20;;;23.10;67.30;;;;;;5071650;28;20072;-92
2022/05/10 10:45:31;;;;;;;11.45;6.95;;;23.10;69.00;;;;;;5031791;28;20170;-92
2022/05/10 10:48:01;;;;;;;10.40;6.03;;;23.10;66.30;;;;;;5030957;28;20036;-92
2022/05/10 10:50:32;;;;;;;12.43;5.95;;;23.10;67.50;;;;;;5055035;28;20040;-91
2022/05/10 10:53:00;;;;;;;13.45;5.68;;;23.20;66.80;;;;;;5070454;28;20045;-91
2022/05/10 10:56:10;;;;;;;11.23;5.63;;;23.30;67.80;;;;;;5054887;28;20033;-92
2022/05/10 10:58:48;;;;;;;10.48;5.53;;;23.40;66.20;;;;;;5037102;28;20051;-92
2022/05/10 11:01:50;;;;;;;10.77;5.80;;;23.40;65.60;;;;;;5037844;28;20056;-91
2022/05/10 11:04:37;;;;;;;14.32;5.95;;;23.50;64.60;;;;;;5053920;28;20056;-92
2022/05/10 11:07:18;;;;;;;10.55;5.82;;;23.40;64.30;;;;;;5037627;28;20085;-92
2022/05/10 11:09:55;;;;;;;11.57;6.13;;;23.50;63.50;;;;;;5053999;28;20072;-91
2022/05/10 11:12:52;;;;;;;12.05;6.22;;;23.50;64.60;;;;;;5037875;28;20083;-91
2022/05/10 11:15:23;;;;;;;14.18;5.90;;;23.60;65.20;;;;;;5037869;28;20108;-92
2022/05/10 11:18:19;;;;;;;11.85;5.45;;;23.70;65.30;;;;;;5052361;28;20054;-92
2022/05/10 11:21:21;;;;;;;13.98;5.68;;;23.80;66.00;;;;;;5053936;28;20095;-92
2022/05/10 11:24:12;;;;;;;12.27;5.97;;;24.00;62.90;;;;;;5037597;28;20476;-92
2022/05/10 11:26:56;;;;;;;12.27;6.22;;;24.10;63.00;;;;;;5054353;28;20127;-92
2022/05/10 11:29:53;;;;;;;12.27;6.28;;;24.20;61.50;;;;;;5054209;28;20413;-92
2022/05/10 11:32:31;;;;;;;12.32;5.70;;;24.10;61.50;;;;;;5054192;28;20527;-91
2022/05/10 11:34:56;;;;;;;10.80;5.75;;;24.10;62.70;;;;;;5036468;28;20521;-92
2022/05/10 11:37:30;;;;;;;12.43;6.30;;;24.10;62.80;;;;;;5052961;28;20048;-92
2022/05/10 11:40:14;;;;;;;12.60;6.50;;;24.10;64.10;;;;;;5044733;28;20029;-92
2022/05/10 11:43:10;;;;;;;9.23;5.57;;;24.10;63.70;;;;;;5033970;28;20048;-92
2022/05/10 11:45:45;;;;;;;11.73;6.60;;;24.00;62.40;;;;;;5056058;28;20118;-92
2022/05/10 11:48:35;;;;;;;10.90;6.60;;;23.90;62.70;;;;;;5053079;28;20671;-92
2022/05/10 11:51:38;;;;;;;10.05;5.80;;;23.90;62.40;;;;;;5036811;28;20052;-91
2022/05/10 11:54:22;;;;;;;10.27;5.20;;;23.90;61.30;;;;;;5049742;28;20390;-92
2022/05/10 11:56:50;;;;;;;12.23;5.68;;;23.90;61.80;;;;;;5052577;28;20040;-91
2022/05/10 11:59:23;;;;;;;14.07;5.30;;;23.90;61.00;;;;;;5052677;28;20086;-91
2022/05/10 12:01:51;;;;;;;9.77;4.53;;;23.90;61.90;;;;;;5054041;28;20041;-91
2022/05/10 12:04:39;;;;;;;9.75;4.60;;;23.80;59.20;;;;;;5037479;28;20032;-92
2022/05/10 12:07:19;;;;;;;12.02;4.70;;;23.90;58.10;;;;;;5073980;28;20040;-91
2022/05/10 12:09:51;;;;;;;12.32;4.90;;;24.00;58.90;;;;;;5056386;28;20063;-91
2022/05/10 12:12:32;;;;;;;15.20;5.00;;;24.20;59.50;;;;;;5072366;28;20032;-91
2022/05/10 12:21:19;;;;;;;11.18;4.35;;;24.50;57.10;;;;;;5067764;28;20040;-92
2022/05/10 12:24:11;;;;;;;10.48;4.72;;;24.40;56.50;;;;;;5056365;28;20085;-93
2022/05/10 12:26:47;;;;;;;13.55;5.47;;;24.30;58.20;;;;;;5037366;28;20040;-91
2022/05/10 12:29:37;;;;;;;13.32;5.40;;;24.10;57.70;;;;;;5037036;28;20040;-92
2022/05/10 12:32:07;;;;;;;11.90;5.65;;;24.10;58.60;;;;;;5051982;28;20038;-92
2022/05/10 12:34:48;;;;;;;10.73;5.63;;;24.00;58.50;;;;;;5035000;28;20071;-91
2022/05/10 12:37:22;;;;;;;11.85;5.72;;;24.10;58.90;;;;;;5052710;28;20045;-92
2022/05/10 12:39:59;;;;;;;12.23;5.93;;;24.10;59.70;;;;;;5033401;28;20051;-92
2022/05/10 12:42:39;;;;;;;12.75;6.15;;;24.20;57.80;;;;;;5051677;28;20471;-92
2022/05/10 12:45:07;;;;;;;11.40;5.80;;;24.10;57.40;;;;;;5036059;28;20037;-92
2022/05/10 12:47:45;;;;;;;12.20;5.15;;;24.10;57.30;;;;;;5051450;28;20048;-92
2022/05/10 12:50:38;;;;;;;11.73;5.15;;;24.00;60.00;;;;;;5051814;28;20043;-92
2022/05/10 12:53:25;;;;;;;10.35;5.40;;;23.90;59.00;;;;;;5044793;28;20044;-92
2022/05/10 12:55:56;;;;;;;12.52;4.90;;;23.80;59.40;;;;;;5052475;28;20037;-91
2022/05/10 12:58:28;;;;;;;12.90;5.28;;;23.70;59.50;;;;;;5051403;28;20028;-90
2022/05/10 13:00:58;;;;;;;12.18;5.10;;;23.70;61.70;;;;;;5053029;28;20037;-90
2022/05/10 13:03:34;;;;;;;12.05;5.78;;;23.70;62.50;;;;;;5052078;28;20532;-89
2022/05/10 13:06:30;;;;;;;14.60;5.28;;;23.70;61.50;;;;;;5052984;28;20048;-90
2022/05/10 13:08:55;;;;;;;13.85;5.75;;;23.70;63.10;;;;;;5051846;28;20553;-89
2022/05/10 13:11:26;;;;;;;13.63;5.53;;;23.70;61.50;;;;;;5036101;28;20131;-89
2022/05/10 13:13:53;;;;;;;12.20;6.22;;;23.80;62.80;;;;;;5035122;28;20041;-89
2022/05/10 13:16:20;;;;;;;11.00;5.75;;;23.80;62.00;;;;;;5055095;28;20044;-90
2022/05/10 13:18:47;;;;;;;12.02;5.93;;;23.70;61.00;;;;;;5038783;28;20036;-89
2022/05/10 13:21:22;;;;;;;12.63;6.38;;;23.60;62.00;;;;;;5031747;28;20032;-90